sensor_id;sensor_type;location;lat;lon;timestamp;P1;durP1;ratioP1;P2;durP2;ratioP2
27959;SDS011;15299;48.184;-1.916;2022-07-06T00:00:58;14.68;;;6.53;;
27959;SDS011;15299;48.184;-1.916;2022-07-06T00:03:26;15.02;;;6.20;;
27959;SDS011;15299;48.184;-1.916;2022-07-06T00:05:55;15.98;;;6.15;;
27959;SDS011;15299;48.184;-1.916;2022-07-06T00:08:24;16.40;;;6.50;;
27959;SDS011;15299;48.184;-1.916;2022-07-06T00:10:51;13.13;;;4.88;;
27959;SDS011;15299;48.184;-1.916;2022-07-06T00:13:19;19.63;;;6.13;;
27959;SDS011;15299;48.184;-1.916;2022-07-06T00:15:46;17.70;;;6.07;;
27959;SDS011;15299;48.184;-1.916;2022-07-06T00:18:14;14.93;;;6.32;;
27959;SDS011;15299;48.184;-1.916;2022-07-06T00:20:42;22.50;;;7.13;;
27959;SDS011;15299;48.184;-1.916;2022-07-06T00:23:11;21.02;;;7.53;;
27959;SDS011;15299;48.184;-1.916;2022-07-06T00:25:38;14.23;;;6.15;;
27959;SDS011;15299;48.184;-1.916;2022-07-06T00:28:06;22.63;;;6.60;;
27959;SDS011;15299;48.184;-1.916;2022-07-06T00:30:34;16.60;;;6.47;;
27959;SDS011;15299;48.184;-1.916;2022-07-06T00:33:02;19.48;;;6.45;;
27959;SDS011;15299;48.184;-1.916;2022-07-06T00:35:29;17.27;;;8.48;;
27959;SDS011;15299;48.184;-1.916;2022-07-06T00:37:57;13.95;;;6.22;;
27959;SDS011;15299;48.184;-1.916;2022-07-06T00:40:27;18.15;;;6.95;;
27959;SDS011;15299;48.184;-1.916;2022-07-06T00:42:56;14.85;;;6.43;;
27959;SDS011;15299;48.184;-1.916;2022-07-06T00:45:24;14.75;;;6.88;;
27959;SDS011;15299;48.184;-1.916;2022-07-06T00:47:52;19.58;;;6.55;;
27959;SDS011;15299;48.184;-1.916;2022-07-06T00:50:19;24.48;;;8.10;;
27959;SDS011;15299;48.184;-1.916;2022-07-06T00:52:48;16.50;;;6.35;;
27959;SDS011;15299;48.184;-1.916;2022-07-06T00:55:17;15.60;;;6.10;;
27959;SDS011;15299;48.184;-1.916;2022-07-06T00:57:46;12.80;;;6.00;;
27959;SDS011;15299;48.184;-1.916;2022-07-06T01:00:15;20.98;;;6.40;;
27959;SDS011;15299;48.184;-1.916;2022-07-06T01:02:43;13.55;;;6.97;;
27959;SDS011;15299;48.184;-1.916;2022-07-06T01:05:12;21.48;;;8.38;;
27959;SDS011;15299;48.184;-1.916;2022-07-06T01:07:41;13.80;;;6.45;;
27959;SDS011;15299;48.184;-1.916;2022-07-06T01:10:09;13.52;;;6.55;;
27959;SDS011;15299;48.184;-1.916;2022-07-06T01:12:37;16.80;;;7.07;;
27959;SDS011;15299;48.184;-1.916;2022-07-06T01:15:09;13.90;;;6.18;;
27959;SDS011;15299;48.184;-1.916;2022-07-06T01:17:38;13.48;;;6.47;;
27959;SDS011;15299;48.184;-1.916;2022-07-06T01:20:11;18.10;;;7.10;;
27959;SDS011;15299;48.184;-1.916;2022-07-06T01:22:39;17.10;;;6.68;;
27959;SDS011;15299;48.184;-1.916;2022-07-06T01:25:07;16.88;;;7.97;;
27959;SDS011;15299;48.184;-1.916;2022-07-06T01:27:35;22.30;;;7.30;;
27959;SDS011;15299;48.184;-1.916;2022-07-06T01:30:04;14.43;;;6.75;;
27959;SDS011;15299;48.184;-1.916;2022-07-06T01:32:32;14.80;;;7.15;;
27959;SDS011;15299;48.184;-1.916;2022-07-06T01:35:00;18.73;;;8.05;;
27959;SDS011;15299;48.184;-1.916;2022-07-06T01:37:30;21.98;;;7.93;;
27959;SDS011;15299;48.184;-1.916;2022-07-06T01:39:58;22.95;;;7.97;;
27959;SDS011;15299;48.184;-1.916;2022-07-06T01:42:26;24.02;;;8.70;;
27959;SDS011;15299;48.184;-1.916;2022-07-06T01:44:54;21.08;;;8.95;;
27959;SDS011;15299;48.184;-1.916;2022-07-06T01:47:22;15.95;;;8.38;;
27959;SDS011;15299;48.184;-1.916;2022-07-06T01:49:50;19.73;;;10.43;;
27959;SDS011;15299;48.184;-1.916;2022-07-06T01:52:20;17.90;;;8.20;;
27959;SDS011;15299;48.184;-1.916;2022-07-06T01:54:49;24.33;;;9.55;;
27959;SDS011;15299;48.184;-1.916;2022-07-06T01:57:17;29.67;;;10.43;;
27959;SDS011;15299;48.184;-1.916;2022-07-06T01:59:45;24.40;;;10.38;;
27959;SDS011;15299;48.184;-1.916;2022-07-06T02:02:13;27.52;;;11.10;;
27959;SDS011;15299;48.184;-1.916;2022-07-06T02:04:43;29.00;;;10.68;;
27959;SDS011;15299;48.184;-1.916;2022-07-06T02:07:11;23.95;;;10.98;;
27959;SDS011;15299;48.184;-1.916;2022-07-06T02:09:39;25.08;;;9.65;;
27959;SDS011;15299;48.184;-1.916;2022-07-06T02:12:08;32.38;;;11.45;;
27959;SDS011;15299;48.184;-1.916;2022-07-06T02:14:36;33.35;;;10.93;;
27959;SDS011;15299;48.184;-1.916;2022-07-06T02:17:03;29.98;;;11.48;;
27959;SDS011;15299;48.184;-1.916;2022-07-06T02:19:33;26.75;;;10.52;;
27959;SDS011;15299;48.184;-1.916;2022-07-06T02:22:01;24.25;;;11.68;;
27959;SDS011;15299;48.184;-1.916;2022-07-06T02:24:31;23.23;;;11.95;;
27959;SDS011;15299;48.184;-1.916;2022-07-06T02:26:59;24.50;;;10.73;;
27959;SDS011;15299;48.184;-1.916;2022-07-06T02:29:29;20.58;;;10.35;;
27959;SDS011;15299;48.184;-1.916;2022-07-06T02:31:56;24.98;;;12.23;;
27959;SDS011;15299;48.184;-1.916;2022-07-06T02:34:24;19.63;;;10.68;;
27959;SDS011;15299;48.184;-1.916;2022-07-06T02:36:52;19.33;;;10.65;;
27959;SDS011;15299;48.184;-1.916;2022-07-06T02:39:20;21.15;;;10.98;;
27959;SDS011;15299;48.184;-1.916;2022-07-06T02:41:48;21.17;;;11.57;;
27959;SDS011;15299;48.184;-1.916;2022-07-06T02:44:16;18.95;;;10.10;;
27959;SDS011;15299;48.184;-1.916;2022-07-06T02:46:44;19.85;;;10.57;;
27959;SDS011;15299;48.184;-1.916;2022-07-06T02:49:12;21.02;;;10.75;;
27959;SDS011;15299;48.184;-1.916;2022-07-06T02:51:40;20.13;;;9.82;;
27959;SDS011;15299;48.184;-1.916;2022-07-06T02:54:07;16.45;;;9.25;;
27959;SDS011;15299;48.184;-1.916;2022-07-06T02:56:35;25.40;;;10.05;;
27959;SDS011;15299;48.184;-1.916;2022-07-06T02:59:03;16.48;;;9.02;;
27959;SDS011;15299;48.184;-1.916;2022-07-06T03:01:31;15.30;;;9.00;;
27959;SDS011;15299;48.184;-1.916;2022-07-06T03:04:00;20.88;;;9.77;;
27959;SDS011;15299;48.184;-1.916;2022-07-06T03:06:28;19.02;;;8.68;;
27959;SDS011;15299;48.184;-1.916;2022-07-06T03:08:55;18.05;;;8.70;;
27959;SDS011;15299;48.184;-1.916;2022-07-06T03:11:23;23.60;;;9.77;;
27959;SDS011;15299;48.184;-1.916;2022-07-06T03:13:51;19.52;;;8.40;;
27959;SDS011;15299;48.184;-1.916;2022-07-06T03:16:19;19.60;;;8.82;;
27959;SDS011;15299;48.184;-1.916;2022-07-06T03:18:47;20.65;;;8.18;;
27959;SDS011;15299;48.184;-1.916;2022-07-06T03:21:16;17.75;;;8.48;;
27959;SDS011;15299;48.184;-1.916;2022-07-06T03:23:44;14.60;;;8.00;;
27959;SDS011;15299;48.184;-1.916;2022-07-06T03:26:11;17.33;;;7.68;;
27959;SDS011;15299;48.184;-1.916;2022-07-06T03:28:40;18.95;;;8.88;;
27959;SDS011;15299;48.184;-1.916;2022-07-06T03:31:07;14.18;;;7.75;;
27959;SDS011;15299;48.184;-1.916;2022-07-06T03:33:35;15.50;;;8.40;;
27959;SDS011;15299;48.184;-1.916;2022-07-06T03:36:03;10.55;;;6.60;;
27959;SDS011;15299;48.184;-1.916;2022-07-06T03:38:34;16.30;;;9.40;;
27959;SDS011;15299;48.184;-1.916;2022-07-06T03:41:02;13.63;;;7.78;;
27959;SDS011;15299;48.184;-1.916;2022-07-06T03:43:31;12.30;;;7.07;;
27959;SDS011;15299;48.184;-1.916;2022-07-06T03:45:59;14.88;;;7.30;;
27959;SDS011;15299;48.184;-1.916;2022-07-06T03:48:26;17.27;;;7.95;;
27959;SDS011;15299;48.184;-1.916;2022-07-06T03:50:54;15.88;;;7.82;;
27959;SDS011;15299;48.184;-1.916;2022-07-06T03:53:22;16.05;;;8.18;;
27959;SDS011;15299;48.184;-1.916;2022-07-06T03:55:51;13.95;;;7.20;;
27959;SDS011;15299;48.184;-1.916;2022-07-06T04:01:01;16.13;;;7.82;;
27959;SDS011;15299;48.184;-1.916;2022-07-06T04:03:29;16.15;;;7.78;;
27959;SDS011;15299;48.184;-1.916;2022-07-06T04:05:56;15.93;;;7.75;;
27959;SDS011;15299;48.184;-1.916;2022-07-06T04:08:24;21.77;;;8.05;;
27959;SDS011;15299;48.184;-1.916;2022-07-06T04:10:57;18.80;;;8.85;;
27959;SDS011;15299;48.184;-1.916;2022-07-06T04:13:25;20.77;;;8.50;;
27959;SDS011;15299;48.184;-1.916;2022-07-06T04:15:53;18.98;;;7.95;;
27959;SDS011;15299;48.184;-1.916;2022-07-06T04:18:21;13.38;;;7.75;;
27959;SDS011;15299;48.184;-1.916;2022-07-06T04:20:52;17.98;;;8.15;;
27959;SDS011;15299;48.184;-1.916;2022-07-06T04:23:20;17.98;;;8.60;;
27959;SDS011;15299;48.184;-1.916;2022-07-06T04:25:49;13.68;;;7.43;;
27959;SDS011;15299;48.184;-1.916;2022-07-06T04:28:19;16.27;;;7.95;;
27959;SDS011;15299;48.184;-1.916;2022-07-06T04:30:47;10.90;;;7.00;;
27959;SDS011;15299;48.184;-1.916;2022-07-06T04:33:17;18.48;;;8.68;;
27959;SDS011;15299;48.184;-1.916;2022-07-06T04:35:47;14.93;;;7.30;;
27959;SDS011;15299;48.184;-1.916;2022-07-06T04:38:15;16.20;;;7.70;;
27959;SDS011;15299;48.184;-1.916;2022-07-06T04:40:44;12.52;;;7.70;;
27959;SDS011;15299;48.184;-1.916;2022-07-06T04:43:14;18.50;;;8.32;;
27959;SDS011;15299;48.184;-1.916;2022-07-06T04:45:44;14.07;;;6.97;;
27959;SDS011;15299;48.184;-1.916;2022-07-06T04:48:12;12.95;;;7.00;;
27959;SDS011;15299;48.184;-1.916;2022-07-06T04:50:40;17.08;;;6.72;;
27959;SDS011;15299;48.184;-1.916;2022-07-06T04:53:13;15.43;;;8.23;;
27959;SDS011;15299;48.184;-1.916;2022-07-06T04:55:41;13.90;;;7.28;;
27959;SDS011;15299;48.184;-1.916;2022-07-06T04:58:08;15.77;;;7.05;;
27959;SDS011;15299;48.184;-1.916;2022-07-06T05:00:36;10.90;;;6.90;;
27959;SDS011;15299;48.184;-1.916;2022-07-06T05:03:05;15.90;;;7.65;;
27959;SDS011;15299;48.184;-1.916;2022-07-06T05:05:33;13.40;;;7.88;;
27959;SDS011;15299;48.184;-1.916;2022-07-06T05:08:01;11.23;;;5.75;;
27959;SDS011;15299;48.184;-1.916;2022-07-06T05:10:29;17.02;;;7.18;;
27959;SDS011;15299;48.184;-1.916;2022-07-06T05:12:57;15.07;;;7.63;;
27959;SDS011;15299;48.184;-1.916;2022-07-06T05:15:27;18.20;;;7.18;;
27959;SDS011;15299;48.184;-1.916;2022-07-06T05:17:56;11.40;;;6.85;;
27959;SDS011;15299;48.184;-1.916;2022-07-06T05:20:25;15.60;;;7.25;;
27959;SDS011;15299;48.184;-1.916;2022-07-06T05:22:53;15.27;;;6.93;;
27959;SDS011;15299;48.184;-1.916;2022-07-06T05:25:26;22.75;;;7.40;;
27959;SDS011;15299;48.184;-1.916;2022-07-06T05:27:56;10.23;;;6.70;;
27959;SDS011;15299;48.184;-1.916;2022-07-06T05:30:25;13.68;;;7.18;;
27959;SDS011;15299;48.184;-1.916;2022-07-06T05:32:53;15.93;;;7.63;;
27959;SDS011;15299;48.184;-1.916;2022-07-06T05:35:21;15.45;;;7.07;;
27959;SDS011;15299;48.184;-1.916;2022-07-06T05:37:50;12.52;;;6.85;;
27959;SDS011;15299;48.184;-1.916;2022-07-06T05:40:18;12.98;;;7.22;;
27959;SDS011;15299;48.184;-1.916;2022-07-06T05:42:45;14.27;;;6.80;;
27959;SDS011;15299;48.184;-1.916;2022-07-06T05:45:13;17.77;;;7.25;;
27959;SDS011;15299;48.184;-1.916;2022-07-06T05:47:41;11.50;;;6.60;;
27959;SDS011;15299;48.184;-1.916;2022-07-06T05:50:26;10.70;;;6.10;;
27959;SDS011;15299;48.184;-1.916;2022-07-06T05:52:57;15.82;;;7.47;;
27959;SDS011;15299;48.184;-1.916;2022-07-06T05:55:27;14.30;;;6.40;;
27959;SDS011;15299;48.184;-1.916;2022-07-06T05:57:56;13.73;;;7.10;;
27959;SDS011;15299;48.184;-1.916;2022-07-06T06:00:26;10.95;;;6.95;;
27959;SDS011;15299;48.184;-1.916;2022-07-06T06:02:59;18.58;;;8.40;;
27959;SDS011;15299;48.184;-1.916;2022-07-06T06:05:26;10.93;;;7.00;;
27959;SDS011;15299;48.184;-1.916;2022-07-06T06:08:01;20.73;;;8.38;;
27959;SDS011;15299;48.184;-1.916;2022-07-06T06:10:29;15.40;;;6.47;;
27959;SDS011;15299;48.184;-1.916;2022-07-06T06:13:00;14.07;;;7.75;;
27959;SDS011;15299;48.184;-1.916;2022-07-06T06:15:29;15.48;;;8.32;;
27959;SDS011;15299;48.184;-1.916;2022-07-06T06:17:57;10.18;;;7.43;;
27959;SDS011;15299;48.184;-1.916;2022-07-06T06:20:25;16.13;;;7.07;;
27959;SDS011;15299;48.184;-1.916;2022-07-06T06:22:53;13.00;;;7.13;;
27959;SDS011;15299;48.184;-1.916;2022-07-06T06:25:27;17.90;;;7.03;;
27959;SDS011;15299;48.184;-1.916;2022-07-06T06:27:55;11.10;;;6.40;;
27959;SDS011;15299;48.184;-1.916;2022-07-06T06:30:23;16.50;;;6.53;;
27959;SDS011;15299;48.184;-1.916;2022-07-06T06:32:50;13.45;;;6.25;;
27959;SDS011;15299;48.184;-1.916;2022-07-06T06:35:18;14.63;;;6.10;;
27959;SDS011;15299;48.184;-1.916;2022-07-06T06:37:45;12.15;;;5.57;;
27959;SDS011;15299;48.184;-1.916;2022-07-06T06:40:13;14.82;;;5.53;;
27959;SDS011;15299;48.184;-1.916;2022-07-06T06:42:42;5.35;;;4.53;;
27959;SDS011;15299;48.184;-1.916;2022-07-06T06:45:11;8.05;;;4.32;;
27959;SDS011;15299;48.184;-1.916;2022-07-06T06:47:39;5.53;;;4.28;;
27959;SDS011;15299;48.184;-1.916;2022-07-06T06:50:07;6.97;;;4.25;;
27959;SDS011;15299;48.184;-1.916;2022-07-06T06:52:34;5.88;;;3.50;;
27959;SDS011;15299;48.184;-1.916;2022-07-06T06:55:02;16.27;;;3.47;;
27959;SDS011;15299;48.184;-1.916;2022-07-06T06:57:30;8.02;;;3.80;;
27959;SDS011;15299;48.184;-1.916;2022-07-06T06:59:59;7.32;;;2.75;;
27959;SDS011;15299;48.184;-1.916;2022-07-06T07:02:26;6.18;;;3.00;;
27959;SDS011;15299;48.184;-1.916;2022-07-06T07:04:54;5.85;;;3.13;;
27959;SDS011;15299;48.184;-1.916;2022-07-06T07:07:22;7.22;;;2.70;;
27959;SDS011;15299;48.184;-1.916;2022-07-06T07:09:49;6.03;;;2.63;;
27959;SDS011;15299;48.184;-1.916;2022-07-06T07:12:17;3.17;;;2.30;;
27959;SDS011;15299;48.184;-1.916;2022-07-06T07:14:44;7.05;;;3.30;;
27959;SDS011;15299;48.184;-1.916;2022-07-06T07:17:14;6.72;;;2.38;;
27959;SDS011;15299;48.184;-1.916;2022-07-06T07:19:41;4.53;;;2.38;;
27959;SDS011;15299;48.184;-1.916;2022-07-06T07:22:09;6.60;;;2.35;;
27959;SDS011;15299;48.184;-1.916;2022-07-06T07:24:37;5.70;;;2.65;;
27959;SDS011;15299;48.184;-1.916;2022-07-06T07:27:04;4.32;;;2.25;;
27959;SDS011;15299;48.184;-1.916;2022-07-06T07:29:32;7.65;;;2.40;;
27959;SDS011;15299;48.184;-1.916;2022-07-06T07:32:00;4.00;;;1.80;;
27959;SDS011;15299;48.184;-1.916;2022-07-06T07:34:29;3.63;;;2.55;;
27959;SDS011;15299;48.184;-1.916;2022-07-06T07:36:57;7.72;;;2.38;;
27959;SDS011;15299;48.184;-1.916;2022-07-06T07:39:24;7.65;;;2.30;;
27959;SDS011;15299;48.184;-1.916;2022-07-06T07:41:52;5.68;;;1.90;;
27959;SDS011;15299;48.184;-1.916;2022-07-06T07:44:19;5.43;;;2.08;;
27959;SDS011;15299;48.184;-1.916;2022-07-06T07:46:47;5.82;;;2.30;;
27959;SDS011;15299;48.184;-1.916;2022-07-06T07:49:15;6.68;;;2.33;;
27959;SDS011;15299;48.184;-1.916;2022-07-06T07:51:44;7.45;;;1.70;;
27959;SDS011;15299;48.184;-1.916;2022-07-06T07:54:12;7.50;;;2.30;;
27959;SDS011;15299;48.184;-1.916;2022-07-06T07:56:39;9.13;;;2.40;;
27959;SDS011;15299;48.184;-1.916;2022-07-06T07:59:07;4.82;;;2.13;;
27959;SDS011;15299;48.184;-1.916;2022-07-06T08:01:36;2.90;;;1.92;;
27959;SDS011;15299;48.184;-1.916;2022-07-06T08:04:04;5.20;;;1.83;;
27959;SDS011;15299;48.184;-1.916;2022-07-06T08:06:32;6.68;;;1.90;;
27959;SDS011;15299;48.184;-1.916;2022-07-06T08:09:01;3.90;;;1.98;;
27959;SDS011;15299;48.184;-1.916;2022-07-06T08:11:30;4.45;;;1.85;;
27959;SDS011;15299;48.184;-1.916;2022-07-06T08:13:57;7.07;;;2.05;;
27959;SDS011;15299;48.184;-1.916;2022-07-06T08:16:25;6.30;;;2.10;;
27959;SDS011;15299;48.184;-1.916;2022-07-06T08:18:53;8.00;;;2.20;;
27959;SDS011;15299;48.184;-1.916;2022-07-06T08:21:20;7.47;;;2.03;;
27959;SDS011;15299;48.184;-1.916;2022-07-06T08:23:48;18.63;;;3.95;;
27959;SDS011;15299;48.184;-1.916;2022-07-06T08:26:17;4.03;;;1.88;;
27959;SDS011;15299;48.184;-1.916;2022-07-06T08:28:45;3.97;;;2.28;;
27959;SDS011;15299;48.184;-1.916;2022-07-06T08:31:12;5.22;;;1.48;;
27959;SDS011;15299;48.184;-1.916;2022-07-06T08:33:40;2.78;;;1.80;;
27959;SDS011;15299;48.184;-1.916;2022-07-06T08:36:08;7.57;;;1.77;;
27959;SDS011;15299;48.184;-1.916;2022-07-06T08:38:35;5.13;;;2.08;;
27959;SDS011;15299;48.184;-1.916;2022-07-06T08:41:03;6.15;;;1.70;;
27959;SDS011;15299;48.184;-1.916;2022-07-06T08:43:33;3.47;;;1.70;;
27959;SDS011;15299;48.184;-1.916;2022-07-06T08:46:02;8.23;;;1.88;;
27959;SDS011;15299;48.184;-1.916;2022-07-06T08:48:31;6.10;;;2.35;;
27959;SDS011;15299;48.184;-1.916;2022-07-06T08:51:02;2.47;;;1.50;;
27959;SDS011;15299;48.184;-1.916;2022-07-06T08:53:29;4.35;;;1.60;;
27959;SDS011;15299;48.184;-1.916;2022-07-06T08:55:57;4.43;;;1.42;;
27959;SDS011;15299;48.184;-1.916;2022-07-06T08:58:25;4.03;;;1.70;;
27959;SDS011;15299;48.184;-1.916;2022-07-06T09:00:54;5.63;;;1.88;;
27959;SDS011;15299;48.184;-1.916;2022-07-06T09:03:22;2.67;;;1.20;;
27959;SDS011;15299;48.184;-1.916;2022-07-06T09:05:50;6.10;;;1.42;;
27959;SDS011;15299;48.184;-1.916;2022-07-06T09:08:19;4.90;;;2.28;;
27959;SDS011;15299;48.184;-1.916;2022-07-06T09:10:48;3.22;;;1.20;;
27959;SDS011;15299;48.184;-1.916;2022-07-06T09:13:15;3.70;;;1.50;;
27959;SDS011;15299;48.184;-1.916;2022-07-06T09:15:43;2.13;;;1.48;;
27959;SDS011;15299;48.184;-1.916;2022-07-06T09:18:12;2.53;;;1.40;;
27959;SDS011;15299;48.184;-1.916;2022-07-06T09:20:40;7.00;;;1.63;;
27959;SDS011;15299;48.184;-1.916;2022-07-06T09:23:08;4.03;;;1.55;;
27959;SDS011;15299;48.184;-1.916;2022-07-06T09:25:36;3.88;;;1.30;;
27959;SDS011;15299;48.184;-1.916;2022-07-06T09:28:03;4.25;;;1.30;;
27959;SDS011;15299;48.184;-1.916;2022-07-06T09:30:33;8.60;;;1.67;;
27959;SDS011;15299;48.184;-1.916;2022-07-06T09:33:05;5.78;;;1.67;;
27959;SDS011;15299;48.184;-1.916;2022-07-06T09:35:37;3.47;;;1.40;;
27959;SDS011;15299;48.184;-1.916;2022-07-06T09:38:05;3.50;;;1.77;;
27959;SDS011;15299;48.184;-1.916;2022-07-06T09:40:34;9.23;;;1.42;;
27959;SDS011;15299;48.184;-1.916;2022-07-06T09:43:09;4.03;;;1.10;;
27959;SDS011;15299;48.184;-1.916;2022-07-06T09:45:37;4.68;;;1.30;;
27959;SDS011;15299;48.184;-1.916;2022-07-06T09:48:05;5.43;;;1.35;;
27959;SDS011;15299;48.184;-1.916;2022-07-06T09:50:39;4.40;;;1.10;;
27959;SDS011;15299;48.184;-1.916;2022-07-06T09:53:07;2.08;;;1.38;;
27959;SDS011;15299;48.184;-1.916;2022-07-06T09:55:34;3.10;;;1.52;;
27959;SDS011;15299;48.184;-1.916;2022-07-06T09:58:02;4.05;;;1.10;;
27959;SDS011;15299;48.184;-1.916;2022-07-06T10:00:30;5.38;;;1.10;;
27959;SDS011;15299;48.184;-1.916;2022-07-06T10:02:57;4.53;;;1.92;;
27959;SDS011;15299;48.184;-1.916;2022-07-06T10:05:26;1.45;;;1.08;;
27959;SDS011;15299;48.184;-1.916;2022-07-06T10:07:58;3.35;;;1.00;;
27959;SDS011;15299;48.184;-1.916;2022-07-06T10:10:26;3.75;;;1.30;;
27959;SDS011;15299;48.184;-1.916;2022-07-06T10:12:55;3.95;;;1.05;;
27959;SDS011;15299;48.184;-1.916;2022-07-06T10:15:23;1.98;;;0.93;;
27959;SDS011;15299;48.184;-1.916;2022-07-06T10:17:51;5.90;;;1.42;;
27959;SDS011;15299;48.184;-1.916;2022-07-06T10:20:19;1.88;;;0.80;;
27959;SDS011;15299;48.184;-1.916;2022-07-06T10:22:47;2.45;;;1.35;;
27959;SDS011;15299;48.184;-1.916;2022-07-06T10:25:17;2.30;;;0.90;;
27959;SDS011;15299;48.184;-1.916;2022-07-06T10:27:45;9.73;;;1.10;;
27959;SDS011;15299;48.184;-1.916;2022-07-06T10:30:13;3.22;;;1.10;;
27959;SDS011;15299;48.184;-1.916;2022-07-06T10:32:42;1.23;;;1.00;;
27959;SDS011;15299;48.184;-1.916;2022-07-06T10:35:11;3.00;;;0.80;;
27959;SDS011;15299;48.184;-1.916;2022-07-06T10:37:38;2.45;;;1.10;;
27959;SDS011;15299;48.184;-1.916;2022-07-06T10:40:16;2.17;;;0.90;;
27959;SDS011;15299;48.184;-1.916;2022-07-06T10:43:15;2.15;;;1.00;;
27959;SDS011;15299;48.184;-1.916;2022-07-06T10:45:50;2.92;;;1.30;;
27959;SDS011;15299;48.184;-1.916;2022-07-06T10:48:18;2.97;;;0.93;;
27959;SDS011;15299;48.184;-1.916;2022-07-06T10:50:48;3.85;;;1.00;;
27959;SDS011;15299;48.184;-1.916;2022-07-06T10:53:17;5.95;;;1.02;;
27959;SDS011;15299;48.184;-1.916;2022-07-06T10:55:46;2.08;;;1.00;;
27959;SDS011;15299;48.184;-1.916;2022-07-06T10:58:25;2.05;;;1.00;;
27959;SDS011;15299;48.184;-1.916;2022-07-06T11:01:01;1.35;;;0.82;;
27959;SDS011;15299;48.184;-1.916;2022-07-06T11:03:32;1.52;;;0.90;;
27959;SDS011;15299;48.184;-1.916;2022-07-06T11:06:01;2.67;;;1.00;;
27959;SDS011;15299;48.184;-1.916;2022-07-06T11:08:48;4.88;;;0.70;;
27959;SDS011;15299;48.184;-1.916;2022-07-06T11:11:20;1.50;;;0.60;;
27959;SDS011;15299;48.184;-1.916;2022-07-06T11:13:52;3.17;;;1.10;;
27959;SDS011;15299;48.184;-1.916;2022-07-06T11:16:20;2.60;;;0.80;;
27959;SDS011;15299;48.184;-1.916;2022-07-06T11:18:49;2.10;;;0.82;;
27959;SDS011;15299;48.184;-1.916;2022-07-06T11:21:17;3.88;;;1.00;;
27959;SDS011;15299;48.184;-1.916;2022-07-06T11:23:46;3.90;;;1.00;;
27959;SDS011;15299;48.184;-1.916;2022-07-06T11:26:13;2.63;;;0.77;;
27959;SDS011;15299;48.184;-1.916;2022-07-06T11:28:42;2.00;;;0.70;;
27959;SDS011;15299;48.184;-1.916;2022-07-06T11:31:12;1.63;;;0.80;;
27959;SDS011;15299;48.184;-1.916;2022-07-06T11:33:40;2.00;;;0.80;;
27959;SDS011;15299;48.184;-1.916;2022-07-06T11:36:11;1.15;;;0.68;;
27959;SDS011;15299;48.184;-1.916;2022-07-06T11:38:39;3.47;;;0.93;;
27959;SDS011;15299;48.184;-1.916;2022-07-06T11:41:07;1.73;;;0.80;;
27959;SDS011;15299;48.184;-1.916;2022-07-06T11:43:36;3.67;;;0.80;;
27959;SDS011;15299;48.184;-1.916;2022-07-06T11:46:19;3.38;;;0.77;;
27959;SDS011;15299;48.184;-1.916;2022-07-06T11:48:46;5.03;;;1.52;;
27959;SDS011;15299;48.184;-1.916;2022-07-06T11:51:16;2.20;;;0.70;;
27959;SDS011;15299;48.184;-1.916;2022-07-06T11:53:44;1.08;;;0.80;;
27959;SDS011;15299;48.184;-1.916;2022-07-06T11:56:12;3.03;;;0.77;;
27959;SDS011;15299;48.184;-1.916;2022-07-06T11:58:41;2.67;;;0.80;;
27959;SDS011;15299;48.184;-1.916;2022-07-06T12:01:12;2.95;;;0.80;;
27959;SDS011;15299;48.184;-1.916;2022-07-06T12:03:41;2.03;;;0.70;;
27959;SDS011;15299;48.184;-1.916;2022-07-06T12:06:16;0.70;;;0.70;;
27959;SDS011;15299;48.184;-1.916;2022-07-06T12:08:44;6.93;;;0.98;;
27959;SDS011;15299;48.184;-1.916;2022-07-06T12:11:19;3.05;;;1.25;;
27959;SDS011;15299;48.184;-1.916;2022-07-06T12:13:48;1.00;;;0.55;;
27959;SDS011;15299;48.184;-1.916;2022-07-06T12:16:16;4.32;;;0.90;;
27959;SDS011;15299;48.184;-1.916;2022-07-06T12:18:47;3.35;;;0.98;;
27959;SDS011;15299;48.184;-1.916;2022-07-06T12:21:15;1.75;;;0.80;;
27959;SDS011;15299;48.184;-1.916;2022-07-06T12:23:44;2.10;;;0.90;;
27959;SDS011;15299;48.184;-1.916;2022-07-06T12:26:12;2.70;;;0.68;;
27959;SDS011;15299;48.184;-1.916;2022-07-06T12:28:41;1.17;;;0.82;;
27959;SDS011;15299;48.184;-1.916;2022-07-06T12:31:09;1.23;;;1.13;;
27959;SDS011;15299;48.184;-1.916;2022-07-06T12:33:36;2.13;;;1.00;;
27959;SDS011;15299;48.184;-1.916;2022-07-06T12:36:13;1.42;;;0.80;;
27959;SDS011;15299;48.184;-1.916;2022-07-06T12:38:45;6.15;;;0.80;;
27959;SDS011;15299;48.184;-1.916;2022-07-06T12:41:29;1.88;;;0.90;;
27959;SDS011;15299;48.184;-1.916;2022-07-06T12:46:43;0.90;;;0.80;;
27959;SDS011;15299;48.184;-1.916;2022-07-06T12:49:13;1.42;;;0.75;;
27959;SDS011;15299;48.184;-1.916;2022-07-06T12:51:53;2.00;;;0.82;;
27959;SDS011;15299;48.184;-1.916;2022-07-06T12:54:21;4.38;;;0.95;;
27959;SDS011;15299;48.184;-1.916;2022-07-06T12:57:03;1.10;;;0.90;;
27959;SDS011;15299;48.184;-1.916;2022-07-06T12:59:32;5.20;;;1.23;;
27959;SDS011;15299;48.184;-1.916;2022-07-06T13:02:00;5.43;;;1.10;;
27959;SDS011;15299;48.184;-1.916;2022-07-06T13:04:28;4.07;;;1.10;;
27959;SDS011;15299;48.184;-1.916;2022-07-06T13:06:58;2.22;;;0.70;;
27959;SDS011;15299;48.184;-1.916;2022-07-06T13:09:26;3.67;;;0.70;;
27959;SDS011;15299;48.184;-1.916;2022-07-06T13:11:54;2.08;;;0.90;;
27959;SDS011;15299;48.184;-1.916;2022-07-06T13:14:21;1.15;;;0.90;;
27959;SDS011;15299;48.184;-1.916;2022-07-06T13:16:49;2.95;;;1.25;;
27959;SDS011;15299;48.184;-1.916;2022-07-06T13:19:17;3.67;;;0.80;;
27959;SDS011;15299;48.184;-1.916;2022-07-06T13:21:44;0.90;;;0.80;;
27959;SDS011;15299;48.184;-1.916;2022-07-06T13:24:13;3.50;;;0.98;;
27959;SDS011;15299;48.184;-1.916;2022-07-06T13:26:41;1.63;;;0.80;;
27959;SDS011;15299;48.184;-1.916;2022-07-06T13:29:09;1.88;;;0.50;;
27959;SDS011;15299;48.184;-1.916;2022-07-06T13:31:37;1.23;;;0.90;;
27959;SDS011;15299;48.184;-1.916;2022-07-06T13:34:06;1.13;;;0.73;;
27959;SDS011;15299;48.184;-1.916;2022-07-06T13:36:33;1.88;;;0.90;;
27959;SDS011;15299;48.184;-1.916;2022-07-06T13:39:01;1.92;;;1.25;;
27959;SDS011;15299;48.184;-1.916;2022-07-06T13:41:30;1.10;;;1.00;;
27959;SDS011;15299;48.184;-1.916;2022-07-06T13:43:58;1.27;;;0.70;;
27959;SDS011;15299;48.184;-1.916;2022-07-06T13:46:26;1.02;;;0.93;;
27959;SDS011;15299;48.184;-1.916;2022-07-06T13:48:54;3.95;;;1.10;;
27959;SDS011;15299;48.184;-1.916;2022-07-06T13:51:22;4.57;;;1.00;;
27959;SDS011;15299;48.184;-1.916;2022-07-06T13:53:50;1.42;;;0.70;;
27959;SDS011;15299;48.184;-1.916;2022-07-06T13:56:18;2.95;;;0.70;;
27959;SDS011;15299;48.184;-1.916;2022-07-06T13:58:47;4.03;;;1.00;;
27959;SDS011;15299;48.184;-1.916;2022-07-06T14:01:15;2.30;;;0.93;;
27959;SDS011;15299;48.184;-1.916;2022-07-06T14:03:42;0.70;;;0.65;;
27959;SDS011;15299;48.184;-1.916;2022-07-06T14:06:10;2.88;;;0.70;;
27959;SDS011;15299;48.184;-1.916;2022-07-06T14:08:39;1.38;;;0.70;;
27959;SDS011;15299;48.184;-1.916;2022-07-06T14:11:07;0.60;;;0.50;;
27959;SDS011;15299;48.184;-1.916;2022-07-06T14:13:35;1.42;;;0.82;;
27959;SDS011;15299;48.184;-1.916;2022-07-06T14:16:04;0.43;;;0.43;;
27959;SDS011;15299;48.184;-1.916;2022-07-06T14:18:32;1.92;;;1.05;;
27959;SDS011;15299;48.184;-1.916;2022-07-06T14:20:59;0.60;;;0.50;;
27959;SDS011;15299;48.184;-1.916;2022-07-06T14:23:27;2.45;;;0.80;;
27959;SDS011;15299;48.184;-1.916;2022-07-06T14:25:55;0.73;;;0.60;;
27959;SDS011;15299;48.184;-1.916;2022-07-06T14:28:23;1.92;;;0.70;;
27959;SDS011;15299;48.184;-1.916;2022-07-06T14:30:51;0.60;;;0.50;;
27959;SDS011;15299;48.184;-1.916;2022-07-06T14:33:20;0.63;;;0.50;;
27959;SDS011;15299;48.184;-1.916;2022-07-06T14:35:48;2.67;;;0.70;;
27959;SDS011;15299;48.184;-1.916;2022-07-06T14:38:16;2.40;;;0.60;;
27959;SDS011;15299;48.184;-1.916;2022-07-06T14:40:44;2.67;;;0.55;;
27959;SDS011;15299;48.184;-1.916;2022-07-06T14:43:15;0.88;;;0.43;;